This is the latest recevied weather packets stored in our database for station/object JA0BES-13. If no packets are shown the sender has not sent any weather packets the latest 10 day(s).
| Time | Temp. | Humidity | Pressure | Rain* | Wind** | Luminosity | Snow |
|---|---|---|---|---|---|---|---|
| 1777612297 | 17.78° C | 100% | 994 hPa | 7.37 mm | - | - | - |
| 1777611697 | 18.33° C | 100% | 994.2 hPa | 7.37 mm | - | - | - |
| 1777611097 | 18.33° C | 100% | 994.3 hPa | 7.37 mm | - | - | - |
| 1777610496 | 17.78° C | 100% | 994.1 hPa | 7.37 mm | - | - | - |
| 1777609896 | 17.22° C | 100% | 994.1 hPa | 7.37 mm | - | - | - |
| 1777609295 | 17.22° C | 100% | 994.7 hPa | 7.37 mm | - | - | - |
| 1777608695 | 17.22° C | 100% | 995.1 hPa | 7.37 mm | - | - | - |
| 1777608095 | 16.67° C | 100% | 995.3 hPa | 7.37 mm | - | - | - |
| 1777607494 | 16.67° C | 100% | 995.6 hPa | 7.37 mm | - | - | - |
| 1777606894 | 16.67° C | 100% | 996 hPa | 7.37 mm | - | - | - |
| 1777606294 | 16.67° C | 100% | 996.3 hPa | 7.37 mm | - | - | - |
| 1777605693 | 16.67° C | 100% | 996.8 hPa | 7.37 mm | - | - | - |
| 1777605093 | 16.67° C | 100% | 996.9 hPa | 7.37 mm | - | - | - |
| 1777604492 | 16.11° C | 100% | 996.9 hPa | 7.37 mm | - | - | - |
| 1777603892 | 15.56° C | 100% | 997.4 hPa | 7.37 mm | - | - | - |
| 1777603292 | 15.56° C | 100% | 998 hPa | 7.37 mm | - | - | - |
| 1777602692 | 16.11° C | 100% | 997.9 hPa | 7.37 mm | - | - | - |
| 1777587083 | 12.78° C | 100% | 1005.3 hPa | 3.56 mm | - | - | - |
| 1777582880 | 13.33° C | 100% | 1006 hPa | 1.52 mm | - | - | - |
| 1777552262 | 11.67° C | 88% | 1015.6 hPa | 0 mm | - | - | - |
| 1777551661 | 11.67° C | 88% | 1015.8 hPa | 0 mm | - | - | - |
| 1777550461 | 11.67° C | 87% | 1015.9 hPa | 0 mm | - | - | - |
| 1777548660 | 11.67° C | 87% | 1016.1 hPa | 0 mm | - | - | - |
| 1777548059 | 11.67° C | 87% | 1016.1 hPa | 0 mm | - | - | - |
| 1777546859 | 11.67° C | 86% | 1016 hPa | 0 mm | - | - | - |
* Rain since midnight (hover to see other rain measurements)
** Current wind speed in m/s (hover to see current wind gust speed)